Paddy Guidry — WTG3900 — position and weather

sailwx.info

Track history (hours):
 
Tides and Currents Weather Stations Pressure Air Temp Water Temp Dewpoint Dewpoint Depression Visibility Wind Speed Wind Dir Waves Ship Positions

Paddy Guidry

Owner: CAPTAIN TIMMY INC, GALLIANO, LA. More information available from US FCC via Universal Licensing System and Coast Guard Vessel Documentation Center.

Last reported at 2016-Nov-15 21:33 UTC. Time now 2016-Dec-03 11:41 UTC.
Position N 29°35' W 090°35'.
Warning: this ship's position is 17 days out of date.

; draft 1.5 m.

Type: Tug. MMSI: 366998310.

Date/timePositionNaut miles runAvg speedWind from/ knotsBaromVisibWave heightAir tempDewpointWater temp
2016-Nov-15 21:33N 29°35' W 090°35'5 2.3
2016-Nov-15 19:33N 29°36' W 090°40'0 0.1
2016-Nov-15 18:33N 29°36' W 090°40'0 0.1
2016-Nov-15 13:33N 29°36' W 090°40'0 0.0
2016-Nov-15 12:33N 29°36' W 090°40'0 0.0
2016-Nov-15 11:33N 29°36' W 090°40'0 0.0
2016-Nov-15 10:33N 29°36' W 090°40'0 0.0
2016-Nov-15 07:33N 29°36' W 090°40'0 0.0
2016-Nov-15 06:33N 29°36' W 090°40'0 0.0
2016-Nov-15 05:53N 29°36' W 090°40'0 0.0
2016-Nov-15 03:33N 29°36' W 090°40'0 0.0
2016-Nov-15 02:33N 29°36' W 090°40'0 0.0
2016-Nov-15 00:33N 29°36' W 090°40'0 0.1
2016-Nov-14 23:43N 29°36' W 090°40'2 0.6
2016-Nov-14 19:33N 29°36' W 090°43'3 1.5
2016-Nov-14 17:33N 29°33' W 090°45'2 1.8
2016-Nov-14 16:33N 29°32' W 090°46'4 3.5
2016-Nov-14 15:33N 29°32' W 090°50'2 0.2
2016-Nov-14 05:33N 29°32' W 090°53'  
2016-Nov-10 00:32N 29°34' W 090°30'9 4.5
2016-Nov-09 22:33N 29°36' W 090°40'0 0.0
2016-Nov-09 20:37N 29°36' W 090°40'0 0.0
2016-Nov-09 19:52N 29°36' W 090°40'0 0.0
2016-Nov-09 19:05N 29°36' W 090°40'0 0.0
2016-Nov-09 18:33N 29°36' W 090°40'0 0.0
2016-Nov-09 17:33N 29°36' W 090°40'0 0.0
2016-Nov-09 15:33N 29°36' W 090°40'0 0.0
2016-Nov-09 13:33N 29°36' W 090°40'0 0.0
2016-Nov-09 08:33N 29°36' W 090°40'0 0.0
2016-Nov-09 07:33N 29°36' W 090°40'2 0.9
2016-Nov-09 05:33N 29°37' W 090°41'3 2.9
2016-Nov-09 04:33N 29°34' W 090°43'7 3.6
2016-Nov-09 02:33N 29°27' W 090°43'  
Track history (hours):
 
Tides and Currents Weather Stations Pressure Air Temp Water Temp Dewpoint Dewpoint Depression Visibility Wind Speed Wind Dir Waves Ship Positions

Paddy Guidry

Owner: CAPTAIN TIMMY INC, GALLIANO, LA. More information available from US FCC via Universal Licensing System and Coast Guard Vessel Documentation Center.

Last reported at 2016-Nov-15 21:33 UTC. Time now 2016-Dec-03 11:41 UTC.
Position N 29°35' W 090°35'.
Warning: this ship's position is 17 days out of date.

; draft 1.5 m.

Type: Tug. MMSI: 366998310.

Date/timePositionNaut miles runAvg speedWind from/ knotsBaromVisibWave heightAir tempDewpointWater temp
2016-Nov-15 21:33N 29°35' W 090°35'5 2.3
2016-Nov-15 19:33N 29°36' W 090°40'0 0.1
2016-Nov-15 18:33N 29°36' W 090°40'0 0.1
2016-Nov-15 13:33N 29°36' W 090°40'0 0.0
2016-Nov-15 12:33N 29°36' W 090°40'0 0.0
2016-Nov-15 11:33N 29°36' W 090°40'0 0.0
2016-Nov-15 10:33N 29°36' W 090°40'0 0.0
2016-Nov-15 07:33N 29°36' W 090°40'0 0.0
2016-Nov-15 06:33N 29°36' W 090°40'0 0.0
2016-Nov-15 05:53N 29°36' W 090°40'0 0.0
2016-Nov-15 03:33N 29°36' W 090°40'0 0.0
2016-Nov-15 02:33N 29°36' W 090°40'0 0.0
2016-Nov-15 00:33N 29°36' W 090°40'0 0.1
2016-Nov-14 23:43N 29°36' W 090°40'2 0.6
2016-Nov-14 19:33N 29°36' W 090°43'3 1.5
2016-Nov-14 17:33N 29°33' W 090°45'2 1.8
2016-Nov-14 16:33N 29°32' W 090°46'4 3.5
2016-Nov-14 15:33N 29°32' W 090°50'2 0.2
2016-Nov-14 05:33N 29°32' W 090°53'  
2016-Nov-10 00:32N 29°34' W 090°30'9 4.5
2016-Nov-09 22:33N 29°36' W 090°40'0 0.0
2016-Nov-09 20:37N 29°36' W 090°40'0 0.0
2016-Nov-09 19:52N 29°36' W 090°40'0 0.0
2016-Nov-09 19:05N 29°36' W 090°40'0 0.0
2016-Nov-09 18:33N 29°36' W 090°40'0 0.0
2016-Nov-09 17:33N 29°36' W 090°40'0 0.0
2016-Nov-09 15:33N 29°36' W 090°40'0 0.0
2016-Nov-09 13:33N 29°36' W 090°40'0 0.0
2016-Nov-09 08:33N 29°36' W 090°40'0 0.0
2016-Nov-09 07:33N 29°36' W 090°40'2 0.9
2016-Nov-09 05:33N 29°37' W 090°41'3 2.9
2016-Nov-09 04:33N 29°34' W 090°43'7 3.6
2016-Nov-09 02:33N 29°27' W 090°43'  

Dump ship's entire track history